createdAt,value
2018-11-01T00:01:29.854Z,99659.30
2018-11-01T00:04:32.826Z,99660.88
2018-11-01T00:07:36.266Z,99653.55
2018-11-01T00:10:39.239Z,99656.91
2018-11-01T00:13:42.181Z,99651.17
2018-11-01T00:16:45.229Z,99645.50
2018-11-01T00:19:48.194Z,99640.34
2018-11-01T00:22:51.138Z,99640.47
2018-11-01T00:25:54.217Z,99640.91
2018-11-01T00:28:57.333Z,99643.23
2018-11-01T00:32:00.869Z,99641.46
2018-11-01T00:35:04.449Z,99645.01
2018-11-01T00:38:07.516Z,99635.35
2018-11-01T00:41:10.949Z,99637.58
2018-11-01T00:44:14.132Z,99635.10
2018-11-01T00:47:17.262Z,99643.63
2018-11-01T00:50:20.250Z,99641.98
2018-11-01T00:53:23.189Z,99634.66
2018-11-01T00:56:26.145Z,99632.83
2018-11-01T00:59:29.587Z,99626.73
2018-11-01T01:02:32.553Z,99625.22
2018-11-01T01:05:35.503Z,99627.48
2018-11-01T01:08:38.445Z,99630.41
2018-11-01T01:11:41.632Z,99634.34
2018-11-01T01:14:44.575Z,99639.28
2018-11-01T01:17:47.499Z,99636.53
2018-11-01T01:20:50.465Z,99640.92
2018-11-01T01:23:53.385Z,99639.08
2018-11-01T01:26:56.311Z,99656.52
2018-11-01T01:29:59.244Z,99666.77
2018-11-01T01:33:02.182Z,99666.19
2018-11-01T01:36:05.539Z,99665.25
2018-11-01T01:39:09.767Z,99657.71
2018-11-01T01:42:13.026Z,99668.70
2018-11-01T01:45:15.948Z,99671.31
2018-11-01T01:48:18.924Z,99677.92
2018-11-01T01:51:21.942Z,99680.44
2018-11-01T01:54:24.884Z,99676.86
2018-11-01T01:57:27.841Z,99673.19
2018-11-01T02:00:30.808Z,99681.86
2018-11-01T02:03:33.736Z,99675.16
2018-11-01T02:06:36.665Z,99666.29
2018-11-01T02:09:39.576Z,99658.39
2018-11-01T02:12:42.517Z,99647.20
2018-11-01T02:15:45.502Z,99633.64
2018-11-01T02:18:48.406Z,99630.67
2018-11-01T02:21:51.343Z,99634.09
2018-11-01T02:24:54.273Z,99632.19
2018-11-01T02:28:02.925Z,99642.47
2018-11-01T02:31:05.961Z,99642.37
2018-11-01T02:34:08.878Z,99653.04
2018-11-01T02:37:11.875Z,99651.98
2018-11-01T02:40:15.454Z,99630.06
2018-11-01T02:43:18.452Z,99612.95
2018-11-01T02:46:21.377Z,99608.53
2018-11-01T02:49:24.867Z,99611.69
2018-11-01T02:52:27.866Z,99607.37
2018-11-01T02:55:30.789Z,99598.34
2018-11-01T02:58:34.439Z,99603.23
2018-11-01T03:01:37.446Z,99605.40
2018-11-01T03:04:40.381Z,99616.13
2018-11-01T03:07:43.375Z,99610.72
2018-11-01T03:10:46.306Z,99598.06
2018-11-01T03:13:49.229Z,99599.09
2018-11-01T03:16:52.240Z,99599.11
2018-11-01T03:19:55.209Z,99602.38
2018-11-01T03:22:58.155Z,99609.44
2018-11-01T03:26:01.250Z,99624.61
2018-11-01T03:29:04.996Z,99617.34
2018-11-01T03:32:07.953Z,99614.02
2018-11-01T03:35:11.549Z,99607.45
2018-11-01T03:38:14.593Z,99603.77
2018-11-01T03:41:17.445Z,99611.97
2018-11-01T03:44:20.358Z,99616.20
2018-11-01T03:47:23.263Z,99608.14
2018-11-01T03:50:26.201Z,99609.75
2018-11-01T03:53:29.230Z,99607.48
2018-11-01T03:56:32.105Z,99604.00
2018-11-01T03:59:35.024Z,99596.31
2018-11-01T04:02:38.091Z,99590.30
2018-11-01T04:05:41.016Z,99581.52
2018-11-01T04:08:43.937Z,99570.30
2018-11-01T04:11:46.881Z,99562.38
2018-11-01T04:14:49.842Z,99552.33
2018-11-01T04:17:52.824Z,99554.52
2018-11-01T04:20:55.749Z,99547.03
2018-11-01T04:23:58.717Z,99546.33
2018-11-01T04:27:02.181Z,99546.75
2018-11-01T04:30:05.913Z,99537.21
2018-11-01T04:33:09.201Z,99527.35
2018-11-01T04:36:12.145Z,99537.84
2018-11-01T04:39:15.514Z,99542.12
2018-11-01T04:42:18.512Z,99545.41
2018-11-01T04:45:21.498Z,99555.61
2018-11-01T04:48:24.410Z,99557.88
2018-11-01T04:51:27.371Z,99574.31
2018-11-01T04:54:30.330Z,99583.44
2018-11-01T04:57:33.287Z,99583.02
2018-11-01T05:00:36.190Z,99569.11
2018-11-01T05:03:39.126Z,99566.98
2018-11-01T05:06:42.093Z,99565.48
2018-11-01T05:09:45.025Z,99562.04
2018-11-01T05:12:47.953Z,99568.92
2018-11-01T05:15:51.396Z,99564.58
2018-11-01T05:18:54.401Z,99554.92
2018-11-01T05:21:57.317Z,99549.67
2018-11-01T05:25:00.290Z,99548.79
2018-11-01T05:28:03.294Z,99545.60
2018-11-01T05:31:06.371Z,99544.28
2018-11-01T05:34:09.294Z,99550.67
2018-11-01T05:37:12.183Z,99550.44
2018-11-01T05:40:15.122Z,99556.25
2018-11-01T05:43:23.785Z,99557.55
2018-11-01T05:46:26.754Z,99555.80
2018-11-01T05:49:29.760Z,99559.78
2018-11-01T05:52:33.228Z,99561.44
2018-11-01T05:55:36.237Z,99557.12
2018-11-01T05:58:39.166Z,99557.12
2018-11-01T06:01:47.852Z,99566.48
2018-11-01T06:04:50.753Z,99561.44
2018-11-01T06:07:57.649Z,99551.80
2018-11-01T06:11:00.568Z,99555.92
2018-11-01T06:14:03.565Z,99540.21
2018-11-01T06:17:06.578Z,99542.19
2018-11-01T06:20:10.465Z,99546.27
2018-11-01T06:23:14.288Z,99542.64
2018-11-01T06:26:17.353Z,99542.70
2018-11-01T06:29:20.280Z,99552.40
2018-11-01T06:32:23.321Z,99561.45
2018-11-01T06:35:30.481Z,99560.63
2018-11-01T06:38:33.432Z,99575.95
2018-11-01T06:41:36.373Z,99578.08
2018-11-01T06:44:39.334Z,99571.19
2018-11-01T06:47:42.523Z,99566.28
2018-11-01T06:50:46.068Z,99554.77
2018-11-01T06:53:48.997Z,99538.47
2018-11-01T06:56:51.965Z,99541.50
2018-11-01T06:59:54.960Z,99539.54
2018-11-01T07:02:57.916Z,99543.14
2018-11-01T07:06:01.960Z,99536.75
2018-11-01T07:09:09.347Z,99538.31
2018-11-01T07:12:12.272Z,99535.22
2018-11-01T07:15:16.053Z,99536.29
2018-11-01T07:18:18.997Z,99531.62
2018-11-01T07:21:21.977Z,99533.85
2018-11-01T07:24:24.950Z,99539.48
2018-11-01T07:27:27.907Z,99542.28
2018-11-01T07:30:30.858Z,99540.16
2018-11-01T07:33:33.809Z,99539.58
2018-11-01T07:36:36.829Z,99520.27
2018-11-01T07:39:39.747Z,99524.22
2018-11-01T07:42:43.393Z,99530.53
2018-11-01T07:45:46.365Z,99525.47
2018-11-01T07:48:49.494Z,99523.95
2018-11-01T07:51:52.341Z,99518.24
2018-11-01T07:54:55.283Z,99525.02
2018-11-01T07:57:58.242Z,99528.02
2018-11-01T08:01:01.305Z,99527.52
2018-11-01T08:04:04.873Z,99531.98
2018-11-01T08:07:08.746Z,99518.48
2018-11-01T08:10:15.664Z,99511.29
2018-11-01T08:13:19.236Z,99508.69
2018-11-01T08:16:22.178Z,99505.14
2018-11-01T08:19:25.207Z,99502.05
2018-11-01T08:22:28.242Z,99508.52
2018-11-01T08:25:31.174Z,99507.75
2018-11-01T08:28:34.137Z,99508.75
2018-11-01T08:31:37.233Z,99505.05
2018-11-01T08:34:40.149Z,99484.16
2018-11-01T08:37:43.877Z,99497.36
2018-11-01T08:40:46.814Z,99499.02
2018-11-01T08:43:49.876Z,99493.42
2018-11-01T08:46:53.558Z,99476.50
2018-11-01T08:49:57.032Z,99481.23
2018-11-01T08:53:00.447Z,99475.86
2018-11-01T08:56:03.511Z,99473.52
2018-11-01T08:59:06.595Z,99482.09
2018-11-01T09:02:09.652Z,99485.58
2018-11-01T09:05:13.174Z,99490.30
2018-11-01T09:08:16.153Z,99500.84
2018-11-01T09:11:19.201Z,99498.61
2018-11-01T09:14:22.198Z,99499.75
2018-11-01T09:17:25.174Z,99498.35
2018-11-01T09:20:28.195Z,99494.45
2018-11-01T09:23:31.397Z,99501.45
2018-11-01T09:26:34.492Z,99508.44
2018-11-01T09:29:37.672Z,99506.66
2018-11-01T09:32:40.908Z,99501.38
2018-11-01T09:35:43.962Z,99502.73
2018-11-01T09:38:46.872Z,99513.16
2018-11-01T09:41:49.817Z,99514.00
2018-11-01T09:44:52.831Z,99508.78
2018-11-01T09:47:55.820Z,99499.14
2018-11-01T09:50:58.806Z,99499.89
2018-11-01T09:54:01.730Z,99502.35
2018-11-01T09:57:05.390Z,99499.45
2018-11-01T10:00:11.975Z,99502.35
2018-11-01T10:03:14.949Z,99512.18
2018-11-01T10:06:18.257Z,99520.45
2018-11-01T10:09:21.221Z,99517.52
2018-11-01T10:12:24.220Z,99510.14
2018-11-01T10:15:27.401Z,99514.41
2018-11-01T10:18:30.548Z,99513.08
2018-11-01T10:21:34.040Z,99510.52
2018-11-01T10:24:37.057Z,99504.10
2018-11-01T10:27:40.109Z,99501.31
2018-11-01T10:30:44.074Z,99503.38
2018-11-01T10:33:47.555Z,99498.89
2018-11-01T10:36:50.542Z,99491.89
2018-11-01T10:39:53.470Z,99482.87
2018-11-01T10:42:56.415Z,99478.14
2018-11-01T10:45:59.469Z,99476.86
2018-11-01T10:49:02.413Z,99476.17
2018-11-01T10:52:05.480Z,99485.61
2018-11-01T10:55:09.446Z,99489.17
2018-11-01T10:58:12.555Z,99497.82
2018-11-01T11:01:21.294Z,99501.00
2018-11-01T11:04:24.283Z,99491.02
2018-11-01T11:07:27.260Z,99489.17
2018-11-01T11:10:30.185Z,99486.48
2018-11-01T11:13:33.164Z,99475.23
2018-11-01T11:16:36.126Z,99465.55
2018-11-01T11:19:39.074Z,99461.54
2018-11-01T11:22:42.006Z,99457.53
2018-11-01T11:25:44.985Z,99456.29
2018-11-01T11:28:47.929Z,99446.16
2018-11-01T11:31:50.887Z,99438.05
2018-11-01T11:34:53.862Z,99438.05
2018-11-01T11:37:56.821Z,99432.25
2018-11-01T11:40:59.820Z,99432.38
2018-11-01T11:44:02.739Z,99428.33
2018-11-01T11:47:05.713Z,99428.82
2018-11-01T11:50:10.161Z,99423.72
2018-11-01T11:53:13.097Z,99423.72
2018-11-01T11:56:16.041Z,99417.68
2018-11-01T11:59:19.013Z,99422.95
2018-11-01T12:02:22.003Z,99418.84
2018-11-01T12:05:24.997Z,99418.19
2018-11-01T12:08:27.913Z,99423.41
2018-11-01T12:11:30.860Z,99415.51
2018-11-01T12:14:33.828Z,99418.11
2018-11-01T12:17:37.317Z,99424.02
2018-11-01T12:20:40.276Z,99422.20
2018-11-01T12:23:43.301Z,99417.16
2018-11-01T12:26:46.268Z,99420.09
2018-11-01T12:29:49.265Z,99424.92
2018-11-01T12:32:52.202Z,99422.85
2018-11-01T12:35:55.224Z,99415.03
2018-11-01T12:38:58.157Z,99425.26
2018-11-01T12:42:01.134Z,99425.09
2018-11-01T12:45:05.446Z,99421.33
2018-11-01T12:48:08.464Z,99412.64
2018-11-01T12:51:11.437Z,99403.55
2018-11-01T12:54:14.428Z,99413.60
2018-11-01T12:57:17.355Z,99425.38
2018-11-01T13:00:20.306Z,99420.22
2018-11-01T13:03:23.232Z,99422.28
2018-11-01T13:06:26.126Z,99420.30
2018-11-01T13:09:29.069Z,99412.41
2018-11-01T13:12:32.059Z,99414.40
2018-11-01T13:15:35.008Z,99424.41
2018-11-01T13:18:37.919Z,99438.51
2018-11-01T13:21:40.834Z,99448.29
2018-11-01T13:24:43.811Z,99451.07
2018-11-01T13:27:46.748Z,99459.87
2018-11-01T13:30:49.899Z,99462.11
2018-11-01T13:33:53.261Z,99464.80
2018-11-01T13:36:57.255Z,99471.19
2018-11-01T13:40:01.807Z,99465.97
2018-11-01T13:43:04.952Z,99464.02
2018-11-01T13:46:08.496Z,99468.50
2018-11-01T13:49:12.139Z,99466.42
2018-11-01T13:52:15.775Z,99466.05
2018-11-01T13:55:18.726Z,99464.07
2018-11-01T13:58:22.663Z,99465.97
2018-11-01T14:01:26.235Z,99466.55
2018-11-01T14:04:32.322Z,99466.33
2018-11-01T14:07:37.308Z,99467.61
2018-11-01T14:10:41.050Z,99467.90
2018-11-01T14:13:44.793Z,99466.73
2018-11-01T14:16:49.061Z,99464.30
2018-11-01T14:19:54.269Z,99469.38
2018-11-01T14:22:58.937Z,99467.30
2018-11-01T14:26:02.242Z,99477.02
2018-11-01T14:29:06.129Z,99458.16
2018-11-01T14:32:10.469Z,99455.23
2018-11-01T14:35:14.050Z,99458.03
2018-11-01T14:38:17.038Z,99472.12
2018-11-01T14:41:20.689Z,99475.14
2018-11-01T14:44:24.391Z,99489.72
2018-11-01T14:47:27.805Z,99490.14
2018-11-01T14:50:30.837Z,99500.50
2018-11-01T14:53:34.469Z,99504.92
2018-11-01T14:56:39.288Z,99500.69
2018-11-01T14:59:42.359Z,99502.05
2018-11-01T15:02:44.392Z,99493.39
2018-11-01T15:05:48.960Z,99497.70
2018-11-01T15:08:52.723Z,99503.78
2018-11-01T15:11:57.329Z,99501.77
2018-11-01T15:15:01.154Z,99500.95
2018-11-01T15:18:04.894Z,99508.46
2018-11-01T15:21:08.470Z,99511.11
2018-11-01T15:24:12.593Z,99509.27
2018-11-01T15:27:16.425Z,99517.69
2018-11-01T15:30:20.440Z,99515.47
2018-11-01T15:33:23.603Z,99507.67
2018-11-01T15:36:26.677Z,99501.69
2018-11-01T15:39:30.120Z,99511.53
2018-11-01T15:42:34.757Z,99508.66
2018-11-01T15:45:38.781Z,99504.76
2018-11-01T15:48:43.219Z,99509.38
2018-11-01T15:51:46.370Z,99497.10
2018-11-01T15:54:50.547Z,99499.37
2018-11-01T15:57:54.236Z,99507.30
2018-11-01T16:00:57.986Z,99508.48
2018-11-01T16:04:01.590Z,99511.13
2018-11-01T16:07:05.883Z,99515.05
2018-11-01T16:10:09.539Z,99495.21
2018-11-01T16:13:12.408Z,99493.22
2018-11-01T16:16:15.382Z,99499.52
2018-11-01T16:19:18.361Z,99501.25
2018-11-01T16:22:21.337Z,99506.52
2018-11-01T16:25:24.347Z,99506.14
2018-11-01T16:28:27.344Z,99510.03
2018-11-01T16:31:30.365Z,99508.78
2018-11-01T16:34:33.416Z,99510.41
2018-11-01T16:37:36.429Z,99512.38
2018-11-01T16:40:39.422Z,99513.89
2018-11-01T16:43:42.409Z,99517.59
2018-11-01T16:46:45.427Z,99500.25
2018-11-01T16:49:48.452Z,99490.28
2018-11-01T16:52:51.382Z,99493.23
2018-11-01T16:55:54.314Z,99495.80
2018-11-01T16:58:57.245Z,99489.83
2018-11-01T17:02:00.264Z,99491.56
2018-11-01T17:05:03.946Z,99490.70
2018-11-01T17:08:07.257Z,99497.72
2018-11-01T17:11:10.216Z,99499.29
2018-11-01T17:14:13.213Z,99471.02
2018-11-01T17:17:16.205Z,99474.37
2018-11-01T17:20:19.166Z,99481.94
2018-11-01T17:23:22.141Z,99488.64
2018-11-01T17:26:25.141Z,99493.78
2018-11-01T17:29:28.464Z,99493.20
2018-11-01T17:32:31.490Z,99498.11
2018-11-01T17:35:34.504Z,99495.20
2018-11-01T17:38:37.457Z,99502.48
2018-11-01T17:41:40.407Z,99504.34
2018-11-01T17:44:43.314Z,99508.88
2018-11-01T17:47:46.296Z,99511.97
2018-11-01T17:50:49.229Z,99510.48
2018-11-01T17:53:52.197Z,99512.98
2018-11-01T17:56:55.201Z,99517.78
2018-11-01T17:59:58.181Z,99514.80
2018-11-01T18:03:01.264Z,99514.80
2018-11-01T18:06:04.269Z,99521.09
2018-11-01T18:09:11.531Z,99519.36
2018-11-01T18:12:14.514Z,99514.67
2018-11-01T18:15:17.485Z,99514.14
2018-11-01T18:18:20.478Z,99516.23
2018-11-01T18:21:23.415Z,99508.78
2018-11-01T18:24:26.344Z,99509.80
2018-11-01T18:27:29.322Z,99518.04
2018-11-01T18:30:32.261Z,99511.39
2018-11-01T18:33:35.171Z,99516.34
2018-11-01T18:36:38.166Z,99522.49
2018-11-01T18:39:41.155Z,99529.34
2018-11-01T18:42:44.093Z,99537.55
2018-11-01T18:45:47.033Z,99541.31
2018-11-01T18:48:49.948Z,99543.39
2018-11-01T18:51:52.929Z,99549.84
2018-11-01T18:54:55.866Z,99544.79
2018-11-01T18:57:58.769Z,99541.97
2018-11-01T19:01:01.950Z,99546.73
2018-11-01T19:04:05.158Z,99549.17
2018-11-01T19:07:08.260Z,99547.81
2018-11-01T19:10:11.765Z,99544.44
2018-11-01T19:13:14.765Z,99543.26
2018-11-01T19:16:17.690Z,99547.68
2018-11-01T19:19:20.702Z,99539.16
2018-11-01T19:22:23.637Z,99534.32
2018-11-01T19:25:26.636Z,99537.38
2018-11-01T19:28:29.590Z,99530.46
2018-11-01T19:31:32.611Z,99544.48
2018-11-01T19:34:35.874Z,99550.70
2018-11-01T19:37:38.787Z,99548.97
2018-11-01T19:40:41.817Z,99548.86
2018-11-01T19:43:44.780Z,99555.44
2018-11-01T19:46:47.834Z,99555.33
2018-11-01T19:49:50.954Z,99565.55
2018-11-01T19:52:53.917Z,99559.75
2018-11-01T19:55:56.878Z,99560.93
2018-11-01T19:58:59.941Z,99556.12
2018-11-01T20:02:02.966Z,99555.78
2018-11-01T20:05:07.505Z,99556.92
2018-11-01T20:08:10.690Z,99556.78
2018-11-01T20:11:14.059Z,99557.34
2018-11-01T20:14:17.608Z,99558.77
2018-11-01T20:17:21.490Z,99565.73
2018-11-01T20:20:24.484Z,99567.33
2018-11-01T20:23:28.149Z,99560.86
2018-11-01T20:26:31.247Z,99564.27
2018-11-01T20:29:34.516Z,99567.81
2018-11-01T20:32:37.826Z,99567.75
2018-11-01T20:35:40.927Z,99568.23
2018-11-01T20:38:43.921Z,99576.80
2018-11-01T20:41:47.133Z,99572.83
2018-11-01T20:44:50.152Z,99578.50
2018-11-01T20:47:53.152Z,99573.45
2018-11-01T20:50:56.154Z,99578.73
2018-11-01T20:53:59.343Z,99579.68
2018-11-01T20:57:02.388Z,99581.55
2018-11-01T21:00:08.546Z,99585.34
2018-11-01T21:03:11.606Z,99583.44
2018-11-01T21:06:14.638Z,99594.44
2018-11-01T21:09:17.590Z,99596.66
2018-11-01T21:12:20.613Z,99607.09
2018-11-01T21:15:23.667Z,99606.36
2018-11-01T21:18:26.794Z,99594.92
2018-11-01T21:21:29.857Z,99588.27
2018-11-01T21:24:32.899Z,99584.47
2018-11-01T21:27:35.990Z,99586.35
2018-11-01T21:30:39.323Z,99588.55
2018-11-01T21:33:42.529Z,99589.00
2018-11-01T21:36:45.590Z,99593.11
2018-11-01T21:39:48.683Z,99592.38
2018-11-01T21:42:51.708Z,99584.96
2018-11-01T21:45:54.812Z,99583.75
2018-11-01T21:48:57.934Z,99593.77
2018-11-01T21:52:01.041Z,99598.98
2018-11-01T21:55:04.322Z,99600.03
2018-11-01T21:58:07.500Z,99592.61
2018-11-01T22:01:10.743Z,99605.09
2018-11-01T22:04:14.289Z,99601.09
2018-11-01T22:07:17.630Z,99610.34
2018-11-01T22:10:20.674Z,99605.09
2018-11-01T22:13:24.001Z,99606.33
2018-11-01T22:16:27.054Z,99606.36
2018-11-01T22:19:30.056Z,99603.09
2018-11-01T22:22:33.170Z,99607.63
2018-11-01T22:25:36.176Z,99615.82
2018-11-01T22:28:39.270Z,99612.72
2018-11-01T22:31:42.378Z,99614.50
2018-11-01T22:34:45.421Z,99619.83
2018-11-01T22:37:48.549Z,99627.02
2018-11-01T22:40:51.472Z,99622.71
2018-11-01T22:43:54.473Z,99624.65
2018-11-01T22:46:57.466Z,99632.31
2018-11-01T22:50:00.345Z,99631.64
2018-11-01T22:53:03.296Z,99639.39
2018-11-01T22:56:07.254Z,99647.08
2018-11-01T22:59:10.166Z,99641.16
2018-11-01T23:02:13.087Z,99648.75
2018-11-01T23:05:16.013Z,99654.18
2018-11-01T23:08:18.984Z,99663.02
2018-11-01T23:11:21.960Z,99667.03
2018-11-01T23:14:24.918Z,99664.52
2018-11-01T23:17:27.826Z,99670.92
2018-11-01T23:20:30.758Z,99668.15
2018-11-01T23:23:33.730Z,99672.92
2018-11-01T23:26:36.686Z,99669.67
2018-11-01T23:29:39.649Z,99665.81
2018-11-01T23:32:42.652Z,99663.17
2018-11-01T23:35:45.570Z,99665.25
2018-11-01T23:38:54.217Z,99669.33
2018-11-01T23:42:02.749Z,99677.86
2018-11-01T23:45:11.513Z,99670.80
2018-11-01T23:48:13.981Z,99682.28
2018-11-01T23:51:17.920Z,99681.31
2018-11-01T23:54:20.826Z,99687.92
2018-11-01T23:57:23.781Z,99686.81
